createdAt,value
2018-05-31T00:00:33.240Z,0
2018-05-31T00:01:32.707Z,0
2018-05-31T00:02:33.023Z,0
2018-05-31T00:03:33.300Z,0
2018-05-31T00:04:33.384Z,0
2018-05-31T00:05:33.193Z,0
2018-05-31T00:06:33.148Z,0
2018-05-31T00:07:33.180Z,0
2018-05-31T00:08:33.204Z,0
2018-05-31T00:09:33.677Z,0
2018-05-31T00:10:33.499Z,0
2018-05-31T00:11:33.505Z,0
2018-05-31T00:12:33.589Z,0
2018-05-31T00:13:34.061Z,0
2018-05-31T00:14:34.470Z,0
2018-05-31T00:15:33.332Z,0
2018-05-31T00:16:33.123Z,0
2018-05-31T00:17:33.149Z,0
2018-05-31T00:18:33.145Z,0
2018-05-31T00:19:33.604Z,0
2018-05-31T00:20:33.793Z,0
2018-05-31T00:21:33.800Z,0
2018-05-31T00:22:34.015Z,0
2018-05-31T00:23:34.302Z,0
2018-05-31T00:24:33.317Z,0
2018-05-31T00:25:33.855Z,0
2018-05-31T00:26:33.939Z,0
2018-05-31T00:27:33.379Z,0
2018-05-31T00:28:33.423Z,0
2018-05-31T00:29:33.720Z,0
2018-05-31T00:30:34.007Z,0
2018-05-31T00:31:34.018Z,0
2018-05-31T00:32:34.608Z,0
2018-05-31T00:33:33.833Z,0
2018-05-31T00:34:33.879Z,0
2018-05-31T00:35:33.903Z,0
2018-05-31T00:36:33.856Z,0
2018-05-31T00:37:33.915Z,0
2018-05-31T00:38:34.252Z,0
2018-05-31T00:39:34.438Z,0
2018-05-31T00:40:34.010Z,0
2018-05-31T00:41:34.960Z,0
2018-05-31T00:42:34.424Z,0
2018-05-31T00:43:33.811Z,0
2018-05-31T00:44:34.122Z,0
2018-05-31T00:45:34.385Z,0
2018-05-31T00:46:33.875Z,0
2018-05-31T00:47:33.903Z,0
2018-05-31T00:48:34.240Z,0
2018-05-31T00:49:34.219Z,0
2018-05-31T00:50:35.525Z,0
2018-05-31T00:51:35.502Z,0
2018-05-31T00:52:34.631Z,0
2018-05-31T00:53:34.029Z,0
2018-05-31T00:54:34.087Z,0
2018-05-31T00:55:34.688Z,0
2018-05-31T00:56:34.436Z,0
2018-05-31T00:57:34.696Z,0
2018-05-31T00:58:34.448Z,0
2018-05-31T00:59:34.941Z,0
2018-05-31T01:00:35.917Z,0
2018-05-31T01:01:34.560Z,0
2018-05-31T01:02:34.896Z,0
2018-05-31T01:03:34.887Z,0
2018-05-31T01:04:34.939Z,0
2018-05-31T01:05:34.927Z,0
2018-05-31T01:06:34.950Z,0
2018-05-31T01:07:34.732Z,0
2018-05-31T01:08:35.082Z,0
2018-05-31T01:09:35.444Z,0
2018-05-31T01:10:34.773Z,0
2018-05-31T01:11:34.490Z,0
2018-05-31T01:12:35.095Z,0
2018-05-31T01:13:35.111Z,0
2018-05-31T01:14:34.866Z,0
2018-05-31T01:15:34.895Z,0
2018-05-31T01:16:35.198Z,0
2018-05-31T01:17:35.247Z,0
2018-05-31T01:18:35.798Z,0
2018-05-31T01:19:34.422Z,0
2018-05-31T01:20:35.293Z,0
2018-05-31T01:21:35.358Z,0
2018-05-31T01:22:35.328Z,0
2018-05-31T01:23:35.076Z,0
2018-05-31T01:24:35.125Z,0
2018-05-31T01:25:34.900Z,0
2018-05-31T01:26:35.438Z,0
2018-05-31T01:27:36.086Z,0
2018-05-31T01:28:34.662Z,0
2018-05-31T01:29:35.237Z,0
2018-05-31T01:30:35.280Z,0
2018-05-31T01:31:35.305Z,0
2018-05-31T01:32:35.595Z,0
2018-05-31T01:33:35.407Z,0
2018-05-31T01:34:35.630Z,0
2018-05-31T01:35:35.139Z,0
2018-05-31T01:36:34.869Z,0
2018-05-31T01:37:35.628Z,0
2018-05-31T01:38:35.487Z,0
2018-05-31T01:39:35.792Z,0
2018-05-31T01:40:35.793Z,0
2018-05-31T01:41:34.993Z,0
2018-05-31T01:42:35.599Z,0
2018-05-31T01:43:35.906Z,0
2018-05-31T01:44:35.637Z,0
2018-05-31T01:45:36.117Z,0
2018-05-31T01:46:36.176Z,0
2018-05-31T01:47:35.719Z,0
2018-05-31T01:48:36.060Z,0
2018-05-31T01:49:36.096Z,0
2018-05-31T01:50:36.054Z,0
2018-05-31T01:51:36.123Z,0
2018-05-31T01:52:36.106Z,0
2018-05-31T01:53:35.864Z,0
2018-05-31T01:54:36.000Z,0
2018-05-31T01:55:37.611Z,0
2018-05-31T01:56:36.216Z,0
2018-05-31T01:57:36.014Z,0
2018-05-31T01:58:35.988Z,0
2018-05-31T01:59:35.699Z,0
2018-05-31T02:00:36.013Z,0
2018-05-31T02:01:36.067Z,0
2018-05-31T02:02:36.407Z,0
2018-05-31T02:03:36.419Z,0
2018-05-31T02:04:37.156Z,0
2018-05-31T02:05:35.851Z,0
2018-05-31T02:06:35.908Z,0
2018-05-31T02:07:36.209Z,0
2018-05-31T02:08:35.944Z,0
2018-05-31T02:09:36.220Z,0
2018-05-31T02:10:36.680Z,0
2018-05-31T02:11:36.021Z,0
2018-05-31T02:12:36.625Z,0
2018-05-31T02:13:37.268Z,0
2018-05-31T02:14:36.444Z,0
2018-05-31T02:15:36.135Z,0
2018-05-31T02:16:36.434Z,0
2018-05-31T02:17:36.727Z,0
2018-05-31T02:18:35.907Z,0
2018-05-31T02:19:36.239Z,0
2018-05-31T02:20:36.261Z,0
2018-05-31T02:21:36.837Z,0
2018-05-31T02:22:37.301Z,0
2018-05-31T02:23:36.891Z,0
2018-05-31T02:24:36.651Z,0
2018-05-31T02:25:37.118Z,0
2018-05-31T02:26:36.960Z,0
2018-05-31T02:27:36.692Z,0
2018-05-31T02:28:36.999Z,0
2018-05-31T02:29:36.786Z,0
2018-05-31T02:30:36.512Z,0
2018-05-31T02:31:37.010Z,0
2018-05-31T02:32:36.519Z,0
2018-05-31T02:33:37.108Z,0
2018-05-31T02:34:37.159Z,0
2018-05-31T02:35:37.171Z,0
2018-05-31T02:36:36.894Z,0
2018-05-31T02:37:37.266Z,0
2018-05-31T02:38:36.962Z,0
2018-05-31T02:39:37.009Z,0
2018-05-31T02:40:37.892Z,0
2018-05-31T02:41:37.564Z,0
2018-05-31T02:42:37.135Z,0
2018-05-31T02:43:36.241Z,0
2018-05-31T02:44:37.109Z,0
2018-05-31T02:45:37.440Z,0
2018-05-31T02:46:37.455Z,0
2018-05-31T02:47:36.920Z,0
2018-05-31T02:48:37.490Z,0
2018-05-31T02:49:37.286Z,0
2018-05-31T02:50:38.382Z,0
2018-05-31T02:51:37.284Z,0
2018-05-31T02:52:37.629Z,0
2018-05-31T02:53:37.038Z,0
2018-05-31T02:54:37.385Z,0
2018-05-31T02:55:37.661Z,0
2018-05-31T02:56:37.422Z,0
2018-05-31T02:57:37.449Z,0
2018-05-31T02:58:38.063Z,0
2018-05-31T02:59:37.829Z,0
2018-05-31T03:00:37.500Z,0
2018-05-31T03:01:37.576Z,0
2018-05-31T03:02:37.292Z,0
2018-05-31T03:03:37.626Z,0
2018-05-31T03:04:38.243Z,0
2018-05-31T03:05:38.010Z,0
2018-05-31T03:06:37.671Z,0
2018-05-31T03:07:38.216Z,0
2018-05-31T03:08:39.150Z,0
2018-05-31T03:09:38.010Z,0
2018-05-31T03:10:37.757Z,0
2018-05-31T03:11:37.831Z,0
2018-05-31T03:12:37.804Z,0
2018-05-31T03:13:38.124Z,0
2018-05-31T03:14:38.111Z,0
2018-05-31T03:15:38.204Z,0
2018-05-31T03:16:38.357Z,0
2018-05-31T03:17:38.981Z,0
2018-05-31T03:18:38.268Z,0
2018-05-31T03:19:38.268Z,0
2018-05-31T03:20:38.312Z,0
2018-05-31T03:21:38.038Z,0
2018-05-31T03:22:38.022Z,0
2018-05-31T03:23:38.082Z,0
2018-05-31T03:24:38.409Z,0
2018-05-31T03:25:38.444Z,0
2018-05-31T03:26:39.981Z,0
2018-05-31T03:27:37.920Z,0
2018-05-31T03:28:38.229Z,0
2018-05-31T03:29:37.966Z,0
2018-05-31T03:30:38.253Z,0
2018-05-31T03:31:37.722Z,0
2018-05-31T03:32:38.030Z,0
2018-05-31T03:33:38.068Z,0
2018-05-31T03:34:38.308Z,5
2018-05-31T03:35:39.293Z,5
2018-05-31T03:36:38.401Z,5
2018-05-31T03:37:38.722Z,5
2018-05-31T03:38:38.748Z,5
2018-05-31T03:39:38.179Z,5
2018-05-31T03:40:38.488Z,5
2018-05-31T03:41:38.843Z,5
2018-05-31T03:42:38.569Z,5
2018-05-31T03:43:38.686Z,5
2018-05-31T03:44:39.150Z,5
2018-05-31T03:45:38.627Z,5
2018-05-31T03:46:38.637Z,5
2018-05-31T03:47:39.040Z,5
2018-05-31T03:48:38.659Z,5
2018-05-31T03:49:38.719Z,5
2018-05-31T03:50:39.054Z,5
2018-05-31T03:51:38.800Z,5
2018-05-31T03:52:38.768Z,5
2018-05-31T03:53:38.922Z,5
2018-05-31T03:54:39.134Z,5
2018-05-31T03:55:38.616Z,5
2018-05-31T03:56:39.159Z,5
2018-05-31T03:57:39.221Z,5
2018-05-31T03:58:38.364Z,5
2018-05-31T03:59:39.421Z,5
2018-05-31T04:00:39.008Z,5
2018-05-31T04:01:39.768Z,5
2018-05-31T04:02:39.541Z,5
2018-05-31T04:03:39.347Z,5
2018-05-31T04:04:39.091Z,5
2018-05-31T04:05:39.408Z,5
2018-05-31T04:06:38.867Z,5
2018-05-31T04:07:39.145Z,5
2018-05-31T04:08:39.450Z,5
2018-05-31T04:09:39.212Z,5
2018-05-31T04:10:39.624Z,5
2018-05-31T04:11:40.709Z,5
2018-05-31T04:12:38.706Z,5
2018-05-31T04:13:39.577Z,5
2018-05-31T04:14:39.284Z,5
2018-05-31T04:15:39.638Z,5
2018-05-31T04:16:39.635Z,10
2018-05-31T04:17:39.696Z,10
2018-05-31T04:18:39.135Z,10
2018-05-31T04:19:40.181Z,10
2018-05-31T04:20:40.668Z,10
2018-05-31T04:21:39.752Z,5
2018-05-31T04:22:39.541Z,5
2018-05-31T04:23:39.848Z,5
2018-05-31T04:24:39.278Z,5
2018-05-31T04:25:39.308Z,5
2018-05-31T04:26:39.382Z,5
2018-05-31T04:27:39.904Z,5
2018-05-31T04:28:39.813Z,5
2018-05-31T04:29:40.718Z,5
2018-05-31T04:30:39.713Z,5
2018-05-31T04:31:40.059Z,5
2018-05-31T04:32:39.773Z,5
2018-05-31T04:33:40.277Z,5
2018-05-31T04:34:39.798Z,5
2018-05-31T04:35:39.842Z,5
2018-05-31T04:36:40.110Z,5
2018-05-31T04:37:40.266Z,5
2018-05-31T04:38:40.969Z,5
2018-05-31T04:39:40.229Z,5
2018-05-31T04:40:40.222Z,5
2018-05-31T04:41:40.276Z,5
2018-05-31T04:42:40.152Z,5
2018-05-31T04:43:40.375Z,5
2018-05-31T04:44:40.313Z,5
2018-05-31T04:45:40.342Z,5
2018-05-31T04:46:40.903Z,5
2018-05-31T04:47:41.538Z,5
2018-05-31T04:48:39.863Z,5
2018-05-31T04:49:39.852Z,5
2018-05-31T04:50:40.199Z,5
2018-05-31T04:51:39.950Z,5
2018-05-31T04:52:40.509Z,5
2018-05-31T04:53:40.465Z,5
2018-05-31T04:54:40.026Z,5
2018-05-31T04:55:40.995Z,5
2018-05-31T04:56:41.194Z,5
2018-05-31T04:57:40.678Z,5
2018-05-31T04:58:40.711Z,5
2018-05-31T04:59:40.141Z,5
2018-05-31T05:00:40.411Z,5
2018-05-31T05:01:40.173Z,5
2018-05-31T05:02:40.192Z,5
2018-05-31T05:03:40.489Z,5
2018-05-31T05:04:40.873Z,5
2018-05-31T05:05:41.513Z,5
2018-05-31T05:06:40.883Z,5
2018-05-31T05:07:40.656Z,5
2018-05-31T05:08:40.631Z,5
2018-05-31T05:09:40.640Z,5
2018-05-31T05:10:40.669Z,5
2018-05-31T05:11:40.949Z,5
2018-05-31T05:12:40.998Z,5
2018-05-31T05:13:41.325Z,5
2018-05-31T05:14:41.549Z,5
2018-05-31T05:15:40.540Z,5
2018-05-31T05:16:41.090Z,5
2018-05-31T05:17:41.134Z,5
2018-05-31T05:18:41.141Z,5
2018-05-31T05:19:40.599Z,5
2018-05-31T05:20:40.907Z,5
2018-05-31T05:21:40.954Z,5
2018-05-31T05:22:40.945Z,5
2018-05-31T05:23:42.469Z,5
2018-05-31T05:24:41.320Z,5
2018-05-31T05:25:40.481Z,5
2018-05-31T05:26:40.586Z,5
2018-05-31T05:27:41.367Z,5
2018-05-31T05:28:41.356Z,5
2018-05-31T05:29:40.840Z,5
2018-05-31T05:30:41.417Z,5
2018-05-31T05:31:41.883Z,5
2018-05-31T05:32:42.529Z,5
2018-05-31T05:33:41.229Z,5
2018-05-31T05:34:41.505Z,5
2018-05-31T05:35:41.005Z,5
2018-05-31T05:36:41.577Z,5
2018-05-31T05:37:41.337Z,5
2018-05-31T05:38:41.333Z,5
2018-05-31T05:39:41.382Z,5
2018-05-31T05:40:41.777Z,5
2018-05-31T05:41:42.621Z,5
2018-05-31T05:42:40.911Z,5
2018-05-31T05:43:41.568Z,5
2018-05-31T05:44:41.488Z,5
2018-05-31T05:45:41.225Z,5
2018-05-31T05:46:41.821Z,5
2018-05-31T05:47:41.571Z,5
2018-05-31T05:48:41.330Z,5
2018-05-31T05:49:41.640Z,5
2018-05-31T05:50:43.014Z,5
2018-05-31T05:51:41.640Z,5
2018-05-31T05:52:41.671Z,5
2018-05-31T05:53:41.713Z,5
2018-05-31T05:54:42.076Z,5
2018-05-31T05:55:42.081Z,5
2018-05-31T05:56:41.351Z,5
2018-05-31T05:57:42.133Z,5
2018-05-31T05:58:42.490Z,5
2018-05-31T05:59:43.190Z,5
2018-05-31T06:00:42.218Z,5
2018-05-31T06:01:41.929Z,5
2018-05-31T06:02:42.199Z,5
2018-05-31T06:03:41.944Z,5
2018-05-31T06:04:41.742Z,5
2018-05-31T06:05:42.274Z,5
2018-05-31T06:06:42.311Z,5
2018-05-31T06:07:42.765Z,5
2018-05-31T06:08:42.746Z,5
2018-05-31T06:09:42.354Z,5
2018-05-31T06:10:42.175Z,5
2018-05-31T06:11:42.431Z,5
2018-05-31T06:12:42.255Z,5
2018-05-31T06:13:41.938Z,5
2018-05-31T06:14:42.444Z,10
2018-05-31T06:15:42.876Z,10
2018-05-31T06:16:43.417Z,10
2018-05-31T06:17:42.958Z,10
2018-05-31T06:18:42.071Z,10
2018-05-31T06:19:42.357Z,10
2018-05-31T06:20:42.387Z,10
2018-05-31T06:21:42.666Z,10
2018-05-31T06:22:42.129Z,10
2018-05-31T06:23:42.491Z,10
2018-05-31T06:24:42.741Z,10
2018-05-31T06:25:43.819Z,10
2018-05-31T06:26:43.131Z,10
2018-05-31T06:27:42.531Z,10
2018-05-31T06:28:42.530Z,10
2018-05-31T06:29:42.890Z,10
2018-05-31T06:30:43.050Z,10
2018-05-31T06:31:42.603Z,10
2018-05-31T06:32:42.638Z,10
2018-05-31T06:33:43.224Z,10
2018-05-31T06:34:42.400Z,10
2018-05-31T06:35:42.446Z,10
2018-05-31T06:36:42.455Z,10
2018-05-31T06:37:42.478Z,10
2018-05-31T06:38:42.499Z,10
2018-05-31T06:39:43.059Z,10
2018-05-31T06:40:43.089Z,10
2018-05-31T06:41:42.848Z,10
2018-05-31T06:42:43.138Z,10
2018-05-31T06:43:43.200Z,10
2018-05-31T06:44:43.184Z,10
2018-05-31T06:45:42.685Z,10
2018-05-31T06:46:42.961Z,10
2018-05-31T06:47:43.267Z,10
2018-05-31T06:48:43.309Z,10
2018-05-31T06:49:42.769Z,10
2018-05-31T06:50:43.354Z,10
2018-05-31T06:51:43.361Z,10
2018-05-31T06:52:43.130Z,10
2018-05-31T06:53:42.861Z,10
2018-05-31T06:54:42.907Z,10
2018-05-31T06:55:43.195Z,10
2018-05-31T06:56:43.475Z,10
2018-05-31T06:57:43.470Z,10
2018-05-31T06:58:43.532Z,10
2018-05-31T06:59:43.530Z,10
2018-05-31T07:00:43.321Z,10
2018-05-31T07:01:43.333Z,10
2018-05-31T07:02:43.625Z,10
2018-05-31T07:03:43.401Z,10
2018-05-31T07:04:43.403Z,10
2018-05-31T07:05:43.673Z,10
2018-05-31T07:06:43.726Z,10
2018-05-31T07:07:43.491Z,10
2018-05-31T07:08:43.488Z,10
2018-05-31T07:09:43.229Z,10
2018-05-31T07:10:43.828Z,10
2018-05-31T07:11:43.843Z,10
2018-05-31T07:12:43.892Z,10
2018-05-31T07:13:43.613Z,10
2018-05-31T07:14:43.363Z,10
2018-05-31T07:15:43.955Z,10
2018-05-31T07:16:43.956Z,10
2018-05-31T07:17:43.722Z,10
2018-05-31T07:18:43.740Z,10
2018-05-31T07:19:43.770Z,10
2018-05-31T07:20:43.805Z,10
2018-05-31T07:21:43.937Z,10
2018-05-31T07:22:43.859Z,10
2018-05-31T07:23:43.860Z,10
2018-05-31T07:24:44.160Z,10
2018-05-31T07:25:44.215Z,10
2018-05-31T07:26:44.229Z,10
2018-05-31T07:27:43.985Z,10
2018-05-31T07:28:44.292Z,10
2018-05-31T07:29:44.023Z,10
2018-05-31T07:30:43.765Z,10
2018-05-31T07:31:44.341Z,10
2018-05-31T07:32:44.405Z,10
2018-05-31T07:33:44.115Z,10
2018-05-31T07:34:43.892Z,10
2018-05-31T07:35:43.891Z,10
2018-05-31T07:36:44.204Z,10
2018-05-31T07:37:44.245Z,10
2018-05-31T07:38:44.145Z,10
2018-05-31T07:39:44.554Z,10
2018-05-31T07:40:44.558Z,10
2018-05-31T07:41:44.630Z,10
2018-05-31T07:42:44.368Z,10
2018-05-31T07:43:44.342Z,10
2018-05-31T07:44:44.670Z,10
2018-05-31T07:45:44.454Z,10
2018-05-31T07:46:44.457Z,10
2018-05-31T07:47:44.463Z,10
2018-05-31T07:48:44.495Z,10
2018-05-31T07:49:44.267Z,10
2018-05-31T07:50:44.004Z,15
2018-05-31T07:51:44.593Z,15
2018-05-31T07:52:44.623Z,15
2018-05-31T07:53:44.944Z,15
2018-05-31T07:54:44.121Z,15
2018-05-31T07:55:44.978Z,15
2018-05-31T07:56:45.015Z,15
2018-05-31T07:57:44.475Z,15
2018-05-31T07:58:45.020Z,15
2018-05-31T07:59:45.067Z,15
2018-05-31T08:00:44.847Z,15
2018-05-31T08:01:45.133Z,15
2018-05-31T08:02:44.879Z,15
2018-05-31T08:03:44.960Z,15
2018-05-31T08:04:44.939Z,15
2018-05-31T08:05:45.163Z,15
2018-05-31T08:06:44.712Z,15
2018-05-31T08:07:45.239Z,15
2018-05-31T08:08:45.277Z,15
2018-05-31T08:09:45.055Z,15
2018-05-31T08:10:45.385Z,15
2018-05-31T08:11:44.837Z,15
2018-05-31T08:12:45.401Z,15
2018-05-31T08:13:45.423Z,15
2018-05-31T08:14:45.176Z,15
2018-05-31T08:15:45.222Z,15
2018-05-31T08:16:45.534Z,15
2018-05-31T08:17:45.525Z,15
2018-05-31T08:18:45.625Z,15
2018-05-31T08:19:45.571Z,15
2018-05-31T08:20:45.263Z,15
2018-05-31T08:21:45.372Z,15
2018-05-31T08:22:45.659Z,15
2018-05-31T08:23:45.447Z,15
2018-05-31T08:24:45.436Z,15
2018-05-31T08:25:45.754Z,15
2018-05-31T08:26:45.500Z,15
2018-05-31T08:27:45.262Z,15
2018-05-31T08:28:45.867Z,15
2018-05-31T08:29:45.301Z,15
2018-05-31T08:30:45.631Z,15
2018-05-31T08:31:46.510Z,15
2018-05-31T08:32:45.703Z,15
2018-05-31T08:33:45.957Z,20
2018-05-31T08:34:46.046Z,20
2018-05-31T08:35:45.733Z,20
2018-05-31T08:36:45.516Z,20
2018-05-31T08:37:46.099Z,20
2018-05-31T08:38:46.168Z,20
2018-05-31T08:39:45.844Z,20
2018-05-31T08:40:45.854Z,20
2018-05-31T08:41:45.931Z,20
2018-05-31T08:42:45.650Z,20
2018-05-31T08:43:45.949Z,20
2018-05-31T08:44:45.734Z,20
2018-05-31T08:45:46.338Z,20
2018-05-31T08:46:46.311Z,20
2018-05-31T08:47:46.078Z,20
2018-05-31T08:48:46.088Z,20
2018-05-31T08:49:46.126Z,20
2018-05-31T08:50:45.888Z,20
2018-05-31T08:51:46.165Z,20
2018-05-31T08:52:46.238Z,20
2018-05-31T08:53:45.959Z,20
2018-05-31T08:54:46.298Z,20
2018-05-31T08:55:46.583Z,20
2018-05-31T08:56:46.316Z,20
2018-05-31T08:57:46.346Z,20
2018-05-31T08:58:46.634Z,20
2018-05-31T08:59:46.388Z,20
2018-05-31T09:00:46.725Z,20
2018-05-31T09:01:46.454Z,20
2018-05-31T09:02:45.992Z,20
2018-05-31T09:03:46.790Z,20
2018-05-31T09:04:46.611Z,20
2018-05-31T09:05:46.589Z,20
2018-05-31T09:06:46.595Z,20
2018-05-31T09:07:46.916Z,20
2018-05-31T09:08:46.641Z,25
2018-05-31T09:09:46.410Z,25
2018-05-31T09:10:46.997Z,25
2018-05-31T09:11:46.757Z,25
2018-05-31T09:12:46.772Z,25
2018-05-31T09:13:46.558Z,25
2018-05-31T09:14:47.169Z,25
2018-05-31T09:15:46.852Z,25
2018-05-31T09:16:46.641Z,25
2018-05-31T09:17:46.652Z,25
2018-05-31T09:18:46.673Z,25
2018-05-31T09:19:46.724Z,25
2018-05-31T09:20:46.736Z,25
2018-05-31T09:21:47.299Z,25
2018-05-31T09:22:47.363Z,25
2018-05-31T09:23:46.804Z,25
2018-05-31T09:24:47.452Z,25
2018-05-31T09:25:47.165Z,25
2018-05-31T09:26:46.904Z,25
2018-05-31T09:27:47.208Z,25
2018-05-31T09:28:47.631Z,25
2018-05-31T09:29:47.293Z,25
2018-05-31T09:30:47.640Z,25
2018-05-31T09:31:46.789Z,25
2018-05-31T09:32:47.367Z,25
2018-05-31T09:33:47.402Z,25
2018-05-31T09:34:47.474Z,25
2018-05-31T09:35:47.716Z,30
2018-05-31T09:36:47.193Z,30
2018-05-31T09:37:47.811Z,25
2018-05-31T09:38:47.814Z,25
2018-05-31T09:39:47.849Z,30
2018-05-31T09:40:47.625Z,30
2018-05-31T09:41:47.641Z,30
2018-05-31T09:42:47.671Z,30
2018-05-31T09:43:47.952Z,30
2018-05-31T09:44:47.755Z,30
2018-05-31T09:45:48.046Z,30
2018-05-31T09:46:48.148Z,30
2018-05-31T09:47:47.816Z,30
2018-05-31T09:48:47.588Z,30
2018-05-31T09:49:48.117Z,30
2018-05-31T09:50:47.655Z,30
2018-05-31T09:51:48.197Z,30
2018-05-31T09:52:47.726Z,30
2018-05-31T09:53:48.029Z,30
2018-05-31T09:54:47.817Z,30
2018-05-31T09:55:48.347Z,30
2018-05-31T09:56:48.100Z,30
2018-05-31T09:57:48.123Z,35
2018-05-31T09:58:48.400Z,35
2018-05-31T09:59:48.180Z,35
2018-05-31T10:00:48.454Z,35
2018-05-31T10:01:48.515Z,35
2018-05-31T10:02:47.738Z,35
2018-05-31T10:03:48.006Z,35
2018-05-31T10:04:48.323Z,35
2018-05-31T10:05:48.379Z,35
2018-05-31T10:06:48.402Z,35
2018-05-31T10:07:48.666Z,35
2018-05-31T10:08:48.712Z,35
2018-05-31T10:09:48.771Z,35
2018-05-31T10:10:48.841Z,35
2018-05-31T10:11:48.814Z,35
2018-05-31T10:12:48.849Z,35
2018-05-31T10:13:48.649Z,35
2018-05-31T10:14:48.908Z,35
2018-05-31T10:15:48.739Z,35
2018-05-31T10:16:48.718Z,35
2018-05-31T10:17:48.767Z,35
2018-05-31T10:18:48.776Z,35
2018-05-31T10:19:49.062Z,35
2018-05-31T10:20:48.283Z,35
2018-05-31T10:21:48.844Z,40
2018-05-31T10:22:48.902Z,40
2018-05-31T10:23:49.197Z,40
2018-05-31T10:24:48.944Z,40
2018-05-31T10:25:49.024Z,40
2018-05-31T10:26:49.305Z,45
2018-05-31T10:27:49.337Z,40
2018-05-31T10:28:49.392Z,40
2018-05-31T10:29:49.439Z,40
2018-05-31T10:30:48.951Z,40
2018-05-31T10:31:49.502Z,40
2018-05-31T10:32:49.491Z,40
2018-05-31T10:33:49.296Z,40
2018-05-31T10:34:49.323Z,40
2018-05-31T10:35:49.598Z,40
2018-05-31T10:36:49.662Z,40
2018-05-31T10:37:49.647Z,40
2018-05-31T10:38:49.705Z,45
2018-05-31T10:39:49.215Z,45
2018-05-31T10:40:49.756Z,45
2018-05-31T10:41:49.807Z,45
2018-05-31T10:42:49.800Z,45
2018-05-31T10:43:49.300Z,45
2018-05-31T10:44:49.871Z,45
2018-05-31T10:45:49.666Z,45
2018-05-31T10:46:49.970Z,45
2018-05-31T10:47:49.705Z,45
2018-05-31T10:48:49.736Z,45
2018-05-31T10:49:49.787Z,45
2018-05-31T10:50:50.109Z,45
2018-05-31T10:51:49.843Z,45
2018-05-31T10:52:50.179Z,45
2018-05-31T10:53:50.069Z,50
2018-05-31T10:54:50.221Z,50
2018-05-31T10:55:49.990Z,50
2018-05-31T10:56:50.292Z,50
2018-05-31T10:57:49.808Z,50
2018-05-31T10:58:50.092Z,50
2018-05-31T10:59:50.112Z,50
2018-05-31T11:00:50.442Z,50
2018-05-31T11:01:50.139Z,45
2018-05-31T11:02:49.924Z,50
2018-05-31T11:03:50.534Z,50
2018-05-31T11:04:49.759Z,50
2018-05-31T11:05:50.618Z,50
2018-05-31T11:06:50.335Z,50
2018-05-31T11:07:50.385Z,50
2018-05-31T11:08:50.563Z,55
2018-05-31T11:09:50.203Z,55
2018-05-31T11:10:50.496Z,55
2018-05-31T11:11:50.784Z,60
2018-05-31T11:12:50.839Z,60
2018-05-31T11:13:50.861Z,60
2018-05-31T11:14:50.703Z,60
2018-05-31T11:15:50.912Z,60
2018-05-31T11:16:51.042Z,60
2018-05-31T11:17:51.000Z,60
2018-05-31T11:18:50.764Z,60
2018-05-31T11:19:50.793Z,55
2018-05-31T11:20:51.169Z,60
2018-05-31T11:21:51.070Z,60
2018-05-31T11:22:51.188Z,60
2018-05-31T11:23:50.935Z,60
2018-05-31T11:24:51.261Z,60
2018-05-31T11:25:51.261Z,60
2018-05-31T11:26:51.311Z,60
2018-05-31T11:27:51.369Z,60
2018-05-31T11:28:51.116Z,65
2018-05-31T11:29:51.381Z,65
2018-05-31T11:30:51.465Z,65
2018-05-31T11:31:51.233Z,50
2018-05-31T11:32:51.237Z,50
2018-05-31T11:33:51.543Z,60
2018-05-31T11:34:50.906Z,65
2018-05-31T11:35:51.378Z,65
2018-05-31T11:36:51.140Z,65
2018-05-31T11:37:51.426Z,65
2018-05-31T11:38:51.732Z,65
2018-05-31T11:39:51.515Z,40
2018-05-31T11:40:51.521Z,50
2018-05-31T11:41:51.716Z,45
2018-05-31T11:42:51.626Z,40
2018-05-31T11:43:51.949Z,40
2018-05-31T11:44:51.403Z,40
2018-05-31T11:45:51.506Z,45
2018-05-31T11:46:51.722Z,70
2018-05-31T11:47:51.795Z,75
2018-05-31T11:48:52.105Z,55
2018-05-31T11:49:51.848Z,75
2018-05-31T11:50:51.912Z,70
2018-05-31T11:51:52.188Z,75
2018-05-31T11:52:52.182Z,75
2018-05-31T11:53:52.002Z,75
2018-05-31T11:54:52.367Z,75
2018-05-31T11:55:52.045Z,75
2018-05-31T11:56:52.117Z,75
2018-05-31T11:57:52.151Z,70
2018-05-31T11:58:52.432Z,80
2018-05-31T11:59:52.495Z,75
2018-05-31T12:00:52.278Z,75
2018-05-31T12:01:52.829Z,75
2018-05-31T12:02:52.326Z,75
2018-05-31T12:03:52.615Z,75
2018-05-31T12:04:52.401Z,80
2018-05-31T12:05:52.437Z,80
2018-05-31T12:06:52.179Z,80
2018-05-31T12:07:52.513Z,80
2018-05-31T12:08:52.315Z,85
2018-05-31T12:09:52.320Z,85
2018-05-31T12:10:53.183Z,90
2018-05-31T12:11:52.911Z,95
2018-05-31T12:12:52.676Z,95
2018-05-31T12:13:52.468Z,90
2018-05-31T12:14:52.501Z,80
2018-05-31T12:15:53.076Z,60
2018-05-31T12:16:52.848Z,50
2018-05-31T12:17:52.864Z,50
2018-05-31T12:18:52.956Z,50
2018-05-31T12:19:53.245Z,45
2018-05-31T12:20:53.256Z,40
2018-05-31T12:21:53.001Z,35
2018-05-31T12:22:53.048Z,35
2018-05-31T12:23:53.100Z,35
2018-05-31T12:24:53.113Z,35
2018-05-31T12:25:53.447Z,35
2018-05-31T12:26:52.910Z,35
2018-05-31T12:27:53.241Z,35
2018-05-31T12:28:53.547Z,35
2018-05-31T12:29:53.292Z,70
2018-05-31T12:30:53.609Z,50
2018-05-31T12:31:53.119Z,55
2018-05-31T12:32:53.439Z,50
2018-05-31T12:33:53.690Z,45
2018-05-31T12:34:53.217Z,45
2018-05-31T12:35:53.818Z,45
2018-05-31T12:36:53.274Z,45
2018-05-31T12:37:54.037Z,50
2018-05-31T12:38:53.654Z,75
2018-05-31T12:39:53.981Z,85
2018-05-31T12:40:53.736Z,85
2018-05-31T12:41:53.211Z,90
2018-05-31T12:42:53.561Z,90
2018-05-31T12:43:54.107Z,90
2018-05-31T12:44:53.601Z,90
2018-05-31T12:45:53.941Z,45
2018-05-31T12:46:54.233Z,40
2018-05-31T12:47:53.707Z,40
2018-05-31T12:48:54.001Z,45
2018-05-31T12:49:54.065Z,35
2018-05-31T12:50:53.789Z,35
2018-05-31T12:51:54.101Z,45
2018-05-31T12:52:54.185Z,80
2018-05-31T12:53:54.698Z,80
2018-05-31T12:54:53.941Z,85
2018-05-31T12:55:54.537Z,85
2018-05-31T12:56:54.554Z,85
2018-05-31T12:57:54.030Z,85
2018-05-31T12:58:54.560Z,85
2018-05-31T12:59:54.691Z,85
2018-05-31T13:00:54.726Z,85
2018-05-31T13:01:54.495Z,85
2018-05-31T13:02:54.781Z,80
2018-05-31T13:03:54.584Z,80
2018-05-31T13:04:54.598Z,80
2018-05-31T13:05:55.047Z,80
2018-05-31T13:06:54.935Z,80
2018-05-31T13:07:54.694Z,80
2018-05-31T13:08:54.502Z,80
2018-05-31T13:09:54.782Z,80
2018-05-31T13:10:54.579Z,80
2018-05-31T13:11:54.552Z,85
2018-05-31T13:12:54.904Z,85
2018-05-31T13:13:54.933Z,85
2018-05-31T13:14:55.209Z,85
2018-05-31T13:15:55.002Z,85
2018-05-31T13:16:55.070Z,85
2018-05-31T13:17:55.064Z,85
2018-05-31T13:18:54.901Z,85
2018-05-31T13:19:55.157Z,85
2018-05-31T13:20:55.196Z,85
2018-05-31T13:21:55.526Z,85
2018-05-31T13:22:55.534Z,85
2018-05-31T13:23:55.040Z,85
2018-05-31T13:24:55.610Z,85
2018-05-31T13:25:55.688Z,85
2018-05-31T13:26:55.463Z,85
2018-05-31T13:27:55.741Z,85
2018-05-31T13:28:55.488Z,85
2018-05-31T13:29:55.809Z,85
2018-05-31T13:30:55.570Z,85
2018-05-31T13:31:55.585Z,85
2018-05-31T13:32:55.652Z,85
2018-05-31T13:33:55.415Z,85
2018-05-31T13:34:55.726Z,85
2018-05-31T13:35:55.762Z,85
2018-05-31T13:36:55.819Z,85
2018-05-31T13:37:56.103Z,85
2018-05-31T13:38:55.861Z,85
2018-05-31T13:39:55.921Z,85
2018-05-31T13:40:55.702Z,90
2018-05-31T13:41:56.246Z,90
2018-05-31T13:42:56.320Z,90
2018-05-31T13:43:55.798Z,90
2018-05-31T13:44:55.851Z,90
2018-05-31T13:45:56.161Z,90
2018-05-31T13:46:56.190Z,90
2018-05-31T13:47:56.226Z,90
2018-05-31T13:48:56.523Z,90
2018-05-31T13:49:56.280Z,85
2018-05-31T13:50:56.606Z,90
2018-05-31T13:51:56.388Z,85
2018-05-31T13:52:56.700Z,90
2018-05-31T13:53:56.461Z,90
2018-05-31T13:54:56.767Z,90
2018-05-31T13:55:56.525Z,95
2018-05-31T13:56:56.571Z,90
2018-05-31T13:57:56.858Z,90
2018-05-31T13:58:56.372Z,95
2018-05-31T13:59:56.679Z,90
2018-05-31T14:00:56.715Z,95
2018-05-31T14:01:56.912Z,95
2018-05-31T14:02:57.028Z,90
2018-05-31T14:03:57.136Z,90
2018-05-31T14:04:56.600Z,90
2018-05-31T14:05:56.614Z,95
2018-05-31T14:06:57.205Z,100
2018-05-31T14:07:56.984Z,105
2018-05-31T14:08:57.029Z,105
2018-05-31T14:09:57.331Z,105
2018-05-31T14:10:57.406Z,105
2018-05-31T14:11:57.388Z,105
2018-05-31T14:12:57.476Z,115
2018-05-31T14:13:57.476Z,120
2018-05-31T14:14:57.511Z,135
2018-05-31T14:15:57.312Z,130
2018-05-31T14:16:57.394Z,125
2018-05-31T14:17:57.385Z,115
2018-05-31T14:18:57.400Z,105
2018-05-31T14:19:57.451Z,100
2018-05-31T14:20:57.747Z,90
2018-05-31T14:21:57.587Z,100
2018-05-31T14:22:57.842Z,80
2018-05-31T14:23:57.933Z,70
2018-05-31T14:24:57.923Z,50
2018-05-31T14:25:57.994Z,40
2018-05-31T14:26:57.443Z,35
2018-05-31T14:27:57.821Z,35
2018-05-31T14:28:58.080Z,30